createdAt,value
2018-12-04T00:00:29.105Z,64.17
2018-12-04T00:02:58.413Z,65.10
2018-12-04T00:05:27.573Z,72.67
2018-12-04T00:07:57.001Z,73.37
2018-12-04T00:10:26.180Z,72.97
2018-12-04T00:12:55.376Z,81.03
2018-12-04T00:15:24.729Z,75.90
2018-12-04T00:17:54.076Z,76.00
2018-12-04T00:20:23.167Z,77.40
2018-12-04T00:22:52.373Z,67.00
2018-12-04T00:25:21.568Z,68.27
2018-12-04T00:27:50.763Z,69.30
2018-12-04T00:30:20.211Z,73.03
2018-12-04T00:32:49.376Z,80.77
2018-12-04T00:35:18.456Z,83.80
2018-12-04T00:37:47.653Z,79.77
2018-12-04T00:40:16.858Z,79.50
2018-12-04T00:42:45.952Z,73.30
2018-12-04T00:45:15.258Z,76.53
2018-12-04T00:47:44.476Z,70.83
2018-12-04T00:50:13.569Z,66.67
2018-12-04T00:52:42.836Z,65.60
2018-12-04T00:55:11.965Z,65.90
2018-12-04T00:57:41.052Z,54.83
2018-12-04T01:00:10.973Z,52.70
2018-12-04T01:02:40.152Z,42.50
2018-12-04T01:05:09.360Z,32.87
2018-12-04T01:07:38.497Z,31.03
2018-12-04T01:10:08.432Z,27.00
2018-12-04T01:12:37.662Z,25.97
2018-12-04T01:15:07.848Z,25.77
2018-12-04T01:17:36.999Z,24.13
2018-12-04T01:20:06.884Z,24.13
2018-12-04T01:22:36.164Z,26.37
2018-12-04T01:25:05.504Z,26.60
2018-12-04T01:27:34.448Z,32.23
2018-12-04T01:30:04.309Z,32.20
2018-12-04T01:32:33.412Z,34.67
2018-12-04T01:35:02.509Z,35.00
2018-12-04T01:37:32.021Z,32.87
2018-12-04T01:40:01.185Z,41.50
2018-12-04T01:42:30.393Z,42.27
2018-12-04T01:44:59.911Z,46.07
2018-12-04T01:47:29.088Z,42.30
2018-12-04T01:49:58.206Z,41.00
2018-12-04T01:52:27.261Z,40.63
2018-12-04T01:54:56.488Z,38.33
2018-12-04T01:57:25.708Z,37.00
2018-12-04T01:59:55.136Z,36.90
2018-12-04T02:02:24.395Z,38.27
2018-12-04T02:04:53.791Z,37.43
2018-12-04T02:07:23.003Z,37.27
2018-12-04T02:09:52.087Z,36.33
2018-12-04T02:12:21.286Z,37.07
2018-12-04T02:14:50.548Z,37.47
2018-12-04T02:17:19.673Z,39.13
2018-12-04T02:19:48.883Z,36.93
2018-12-04T02:22:18.112Z,36.70
2018-12-04T02:24:47.278Z,36.43
2018-12-04T02:27:16.485Z,36.20
2018-12-04T02:29:46.596Z,34.93
2018-12-04T02:32:15.780Z,35.73
2018-12-04T02:34:44.969Z,34.70
2018-12-04T02:37:14.493Z,35.40
2018-12-04T02:39:43.680Z,34.87
2018-12-04T02:42:12.868Z,34.93
2018-12-04T02:44:42.507Z,35.97
2018-12-04T02:47:11.672Z,38.40
2018-12-04T02:49:40.882Z,38.70
2018-12-04T02:52:10.244Z,35.13
2018-12-04T02:54:39.472Z,35.27
2018-12-04T02:57:08.776Z,35.07
2018-12-04T02:59:38.038Z,35.40
2018-12-04T03:02:07.652Z,36.27
2018-12-04T03:04:36.878Z,36.87
2018-12-04T03:07:06.757Z,37.17
2018-12-04T03:09:35.996Z,38.17
2018-12-04T03:12:05.201Z,37.07
2018-12-04T03:14:34.600Z,37.37
2018-12-04T03:17:03.806Z,41.07
2018-12-04T03:19:33.100Z,42.67
2018-12-04T03:22:02.260Z,42.20
2018-12-04T03:24:31.918Z,42.77
2018-12-04T03:27:01.101Z,40.77
2018-12-04T03:29:30.552Z,43.00
2018-12-04T03:31:59.910Z,42.57
2018-12-04T03:34:29.206Z,39.83
2018-12-04T03:36:58.933Z,41.17
2018-12-04T03:39:28.113Z,40.13
2018-12-04T03:41:57.320Z,39.50
2018-12-04T03:44:26.442Z,39.30
2018-12-04T03:46:55.701Z,38.73
2018-12-04T03:49:25.001Z,36.03
2018-12-04T03:51:54.367Z,40.63
2018-12-04T03:54:23.524Z,40.90
2018-12-04T03:56:52.613Z,44.53
2018-12-04T03:59:21.878Z,45.23
2018-12-04T04:01:51.001Z,42.27
2018-12-04T04:04:20.196Z,41.20
2018-12-04T04:06:49.608Z,42.77
2018-12-04T04:09:18.797Z,35.00
2018-12-04T04:11:47.979Z,41.97
2018-12-04T04:14:17.420Z,35.93
2018-12-04T04:16:46.697Z,36.90
2018-12-04T04:19:15.884Z,31.37
2018-12-04T04:21:45.317Z,34.03
2018-12-04T04:24:14.596Z,40.77
2018-12-04T04:26:43.817Z,40.93
2018-12-04T04:29:13.030Z,36.10
2018-12-04T04:31:42.108Z,38.97
2018-12-04T04:34:11.194Z,35.90
2018-12-04T04:36:40.525Z,35.90
2018-12-04T04:39:10.185Z,36.77
2018-12-04T04:41:39.393Z,39.90
2018-12-04T04:44:09.009Z,38.47
2018-12-04T04:46:38.217Z,36.37
2018-12-04T04:49:07.313Z,38.70
2018-12-04T04:51:36.677Z,43.13
2018-12-04T04:54:05.901Z,44.27
2018-12-04T04:56:35.108Z,42.03
2018-12-04T04:59:04.328Z,40.83
2018-12-04T05:01:33.509Z,40.57
2018-12-04T05:04:02.704Z,41.00
2018-12-04T05:06:32.034Z,41.33
2018-12-04T05:09:01.168Z,41.70
2018-12-04T05:11:30.301Z,45.17
2018-12-04T05:13:59.540Z,44.10
2018-12-04T05:16:28.677Z,46.30
2018-12-04T05:18:57.901Z,41.70
2018-12-04T05:21:27.428Z,44.50
2018-12-04T05:23:56.680Z,46.70
2018-12-04T05:26:25.880Z,46.80
2018-12-04T05:28:55.357Z,48.73
2018-12-04T05:31:24.577Z,47.47
2018-12-04T05:33:53.776Z,43.67
2018-12-04T05:36:23.222Z,48.13
2018-12-04T05:38:52.377Z,44.10
2018-12-04T05:41:21.464Z,44.13
2018-12-04T05:43:50.633Z,46.20
2018-12-04T05:46:19.965Z,50.03
2018-12-04T05:48:49.941Z,46.20
2018-12-04T05:51:19.228Z,46.93
2018-12-04T05:53:48.287Z,48.30
2018-12-04T05:56:17.481Z,46.97
2018-12-04T05:58:46.859Z,46.87
2018-12-04T06:01:15.992Z,40.63
2018-12-04T06:03:45.495Z,39.67
2018-12-04T06:06:14.670Z,38.80
2018-12-04T06:08:43.887Z,40.90
2018-12-04T06:11:13.078Z,41.70
2018-12-04T06:13:42.126Z,43.80
2018-12-04T06:16:11.492Z,45.57
2018-12-04T06:18:40.402Z,46.03
2018-12-04T06:21:09.472Z,44.13
2018-12-04T06:23:38.369Z,42.43
2018-12-04T06:26:07.518Z,36.13
2018-12-04T06:28:36.756Z,35.60
2018-12-04T06:31:05.642Z,34.70
2018-12-04T06:33:34.561Z,35.27
2018-12-04T06:36:03.609Z,31.80
2018-12-04T06:38:32.513Z,37.40
2018-12-04T06:41:01.405Z,37.17
2018-12-04T06:43:30.459Z,31.57
2018-12-04T06:45:59.415Z,35.03
2018-12-04T06:48:28.500Z,30.23
2018-12-04T06:50:57.804Z,36.37
2018-12-04T06:53:26.865Z,29.43
2018-12-04T06:55:56.072Z,38.50
2018-12-04T06:58:25.528Z,30.80
2018-12-04T07:00:54.670Z,28.97
2018-12-04T07:03:24.190Z,26.97
2018-12-04T07:05:56.161Z,26.50
2018-12-04T07:08:25.712Z,25.20
2018-12-04T07:10:54.856Z,25.07
2018-12-04T07:13:23.851Z,24.93
2018-12-04T07:15:53.288Z,26.00
2018-12-04T07:18:22.445Z,24.80
2018-12-04T07:20:51.636Z,23.40
2018-12-04T07:23:20.879Z,24.33
2018-12-04T07:25:50.037Z,25.47
2018-12-04T07:28:19.444Z,24.60
2018-12-04T07:30:48.873Z,26.53
2018-12-04T07:33:18.035Z,28.67
2018-12-04T07:35:47.014Z,25.07
2018-12-04T07:38:16.446Z,25.77
2018-12-04T07:40:45.626Z,26.67
2018-12-04T07:43:14.717Z,27.87
2018-12-04T07:45:43.861Z,37.30
2018-12-04T07:48:13.124Z,36.17
2018-12-04T07:50:42.219Z,27.67
2018-12-04T07:53:11.699Z,49.73
2018-12-04T07:55:42.868Z,47.17
2018-12-04T07:58:12.372Z,72.80
2018-12-04T08:00:41.656Z,55.27
2018-12-04T08:03:10.888Z,38.53
2018-12-04T08:05:40.359Z,35.83
2018-12-04T08:08:09.604Z,38.37
2018-12-04T08:10:39.069Z,45.47
2018-12-04T08:13:08.409Z,41.10
2018-12-04T08:15:37.577Z,42.10
2018-12-04T08:18:06.494Z,42.90
2018-12-04T08:20:35.489Z,44.47
2018-12-04T08:23:04.849Z,49.10
2018-12-04T08:25:33.963Z,50.33
2018-12-04T08:28:03.361Z,51.90
2018-12-04T08:30:32.554Z,50.73
2018-12-04T08:33:01.817Z,49.20
2018-12-04T08:35:31.444Z,53.43
2018-12-04T08:38:00.731Z,62.67
2018-12-04T08:40:30.038Z,60.13
2018-12-04T08:42:59.244Z,61.83
2018-12-04T08:45:28.412Z,55.43
2018-12-04T08:47:57.559Z,63.83
2018-12-04T08:50:26.832Z,54.47
2018-12-04T08:52:56.005Z,56.53
2018-12-04T08:55:25.208Z,62.37
2018-12-04T08:57:54.465Z,55.70
2018-12-04T09:00:23.709Z,56.43
2018-12-04T09:02:52.900Z,60.90
2018-12-04T09:05:22.354Z,64.50
2018-12-04T09:07:52.552Z,58.27
2018-12-04T09:10:21.642Z,63.70
2018-12-04T09:12:50.932Z,59.23
2018-12-04T09:15:20.224Z,57.07
2018-12-04T09:17:49.520Z,52.13
2018-12-04T09:20:19.082Z,50.23
2018-12-04T09:22:48.479Z,47.57
2018-12-04T09:25:17.967Z,42.17
2018-12-04T09:27:47.428Z,45.33
2018-12-04T09:30:16.773Z,49.80
2018-12-04T09:32:46.149Z,43.20
2018-12-04T09:35:15.593Z,41.50
2018-12-04T09:37:44.771Z,42.87
2018-12-04T09:40:13.945Z,43.57
2018-12-04T09:42:43.374Z,43.20
2018-12-04T09:45:12.755Z,49.53
2018-12-04T09:47:42.061Z,44.80
2018-12-04T09:50:11.465Z,74.90
2018-12-04T09:52:40.649Z,71.50
2018-12-04T09:55:09.865Z,64.10
2018-12-04T09:57:39.273Z,47.07
2018-12-04T10:00:09.373Z,43.43
2018-12-04T10:02:38.473Z,40.50
2018-12-04T10:05:08.239Z,40.13
2018-12-04T10:07:37.387Z,40.40
2018-12-04T10:10:08.376Z,40.87
2018-12-04T10:12:37.525Z,40.53
2018-12-04T10:15:07.612Z,40.70
2018-12-04T10:17:36.988Z,42.03
2018-12-04T10:20:08.013Z,43.77
2018-12-04T10:22:37.330Z,40.90
2018-12-04T10:25:06.872Z,39.77
2018-12-04T10:27:36.081Z,40.80
2018-12-04T10:30:06.851Z,43.83
2018-12-04T10:32:36.212Z,41.90
2018-12-04T10:35:05.704Z,40.77
2018-12-04T10:37:35.793Z,40.87
2018-12-04T10:40:06.305Z,42.27
2018-12-04T10:42:35.705Z,43.47
2018-12-04T10:45:05.597Z,47.03
2018-12-04T10:47:34.577Z,47.20
2018-12-04T10:50:04.004Z,44.10
2018-12-04T10:52:33.060Z,49.93
2018-12-04T10:55:02.989Z,54.60
2018-12-04T10:57:32.520Z,54.30
2018-12-04T11:00:01.684Z,58.53
2018-12-04T11:02:35.114Z,52.93
2018-12-04T11:05:04.215Z,52.43
2018-12-04T11:07:33.273Z,50.30
2018-12-04T11:10:02.522Z,52.20
2018-12-04T11:12:31.782Z,50.60
2018-12-04T11:15:01.068Z,50.97
2018-12-04T11:17:30.305Z,50.17
2018-12-04T11:19:59.468Z,51.83
2018-12-04T11:22:28.572Z,46.83
2018-12-04T11:24:58.041Z,49.90
2018-12-04T11:27:27.185Z,50.63
2018-12-04T11:29:56.165Z,48.40
2018-12-04T11:32:25.408Z,47.10
2018-12-04T11:34:54.561Z,49.33
2018-12-04T11:37:23.856Z,51.43
2018-12-04T11:39:53.276Z,48.23
2018-12-04T11:42:22.457Z,46.57
2018-12-04T11:44:51.752Z,45.07
2018-12-04T11:47:21.110Z,44.97
2018-12-04T11:49:50.260Z,46.77
2018-12-04T11:52:19.575Z,47.63
2018-12-04T11:54:49.030Z,44.33
2018-12-04T11:57:18.573Z,43.37
2018-12-04T11:59:47.673Z,44.27
2018-12-04T12:02:17.190Z,43.47
2018-12-04T12:04:46.455Z,41.63
2018-12-04T12:07:20.512Z,41.53
2018-12-04T12:09:47.740Z,42.70
2018-12-04T12:12:16.741Z,45.63
2018-12-04T12:14:45.830Z,41.03
2018-12-04T12:17:15.313Z,44.50
2018-12-04T12:19:44.424Z,40.73
2018-12-04T12:22:13.641Z,42.33
2018-12-04T12:24:42.756Z,39.60
2018-12-04T12:27:12.013Z,39.47
2018-12-04T12:29:41.309Z,41.30
2018-12-04T12:32:10.523Z,40.10
2018-12-04T12:34:39.617Z,43.43
2018-12-04T12:37:08.701Z,41.90
2018-12-04T12:39:37.936Z,42.77
2018-12-04T12:42:06.988Z,43.07
2018-12-04T12:44:36.198Z,41.57
2018-12-04T12:47:05.708Z,42.67
2018-12-04T12:49:34.884Z,42.60
2018-12-04T12:52:04.081Z,43.10
2018-12-04T12:54:33.710Z,41.10
2018-12-04T12:57:02.887Z,41.77
2018-12-04T12:59:31.887Z,40.03
2018-12-04T13:02:01.317Z,41.20
2018-12-04T13:04:30.505Z,41.07
2018-12-04T13:06:59.696Z,40.03
2018-12-04T13:09:28.936Z,49.80
2018-12-04T13:11:58.097Z,44.00
2018-12-04T13:14:27.188Z,37.63
2018-12-04T13:16:56.533Z,38.50
2018-12-04T13:19:25.768Z,36.70
2018-12-04T13:21:54.889Z,38.37
2018-12-04T13:24:24.303Z,37.47
2018-12-04T13:26:53.587Z,38.53
2018-12-04T13:29:22.765Z,40.07
2018-12-04T13:31:52.433Z,37.47
2018-12-04T13:34:21.815Z,37.03
2018-12-04T13:36:51.372Z,39.00
2018-12-04T13:39:20.913Z,41.63
2018-12-04T13:41:50.093Z,42.50
2018-12-04T13:44:19.203Z,39.73
2018-12-04T13:46:48.695Z,45.77
2018-12-04T13:49:18.007Z,43.30
2018-12-04T13:51:47.351Z,56.63
2018-12-04T13:54:16.931Z,39.77
2018-12-04T13:56:46.125Z,43.33
2018-12-04T13:59:15.202Z,43.73
2018-12-04T14:01:44.965Z,39.73
2018-12-04T14:04:17.187Z,38.90
2018-12-04T14:06:45.799Z,41.03
2018-12-04T14:09:15.154Z,40.80
2018-12-04T14:11:44.494Z,41.53
2018-12-04T14:14:14.192Z,41.17
2018-12-04T14:16:43.618Z,40.53
2018-12-04T14:19:12.977Z,45.90
2018-12-04T14:21:42.349Z,45.53
2018-12-04T14:24:11.472Z,40.87
2018-12-04T14:26:40.464Z,38.90
2018-12-04T14:29:09.447Z,38.67
2018-12-04T14:31:38.781Z,40.27
2018-12-04T14:34:07.948Z,37.77
2018-12-04T14:36:37.320Z,38.03
2018-12-04T14:39:09.095Z,48.83
2018-12-04T14:41:39.026Z,52.13
2018-12-04T14:44:08.447Z,50.33
2018-12-04T14:46:37.640Z,51.97
2018-12-04T14:49:07.153Z,52.73
2018-12-04T14:51:36.239Z,55.97
2018-12-04T14:54:05.347Z,67.80
2018-12-04T14:56:34.918Z,73.47
2018-12-04T14:59:04.179Z,59.73
2018-12-04T15:01:33.679Z,76.20
2018-12-04T15:04:04.509Z,67.10
2018-12-04T15:06:33.694Z,120.60
2018-12-04T15:09:02.803Z,154.67
2018-12-04T15:11:32.268Z,169.37
2018-12-04T15:14:01.909Z,155.27
2018-12-04T15:16:31.421Z,141.33
2018-12-04T15:19:00.784Z,121.73
2018-12-04T15:21:30.134Z,130.27
2018-12-04T15:23:59.628Z,119.90
2018-12-04T15:26:29.300Z,117.83
2018-12-04T15:28:58.701Z,118.53
2018-12-04T15:31:27.945Z,129.43
2018-12-04T15:33:57.611Z,120.93
2018-12-04T15:36:27.458Z,131.80
2018-12-04T15:38:57.029Z,140.20
2018-12-04T15:41:26.864Z,129.77
2018-12-04T15:43:56.299Z,126.17
2018-12-04T15:46:25.863Z,120.93
2018-12-04T15:48:55.148Z,144.60
2018-12-04T15:51:24.605Z,146.57
2018-12-04T15:53:54.093Z,138.27
2018-12-04T15:56:25.116Z,149.70
2018-12-04T15:58:54.523Z,147.33
2018-12-04T16:01:23.828Z,153.33
2018-12-04T16:03:52.968Z,153.60
2018-12-04T16:06:22.122Z,158.20
2018-12-04T16:08:51.209Z,159.20
2018-12-04T16:11:20.457Z,149.63
2018-12-04T16:13:49.908Z,165.27
2018-12-04T16:16:19.009Z,141.70
2018-12-04T16:18:48.453Z,141.67
2018-12-04T16:21:18.725Z,140.87
2018-12-04T16:23:48.108Z,134.10
2018-12-04T16:26:17.958Z,123.47
2018-12-04T16:28:47.225Z,118.40
2018-12-04T16:31:16.305Z,144.07
2018-12-04T16:33:45.408Z,146.60
2018-12-04T16:36:14.741Z,159.67
2018-12-04T16:38:43.664Z,168.20
2018-12-04T16:41:12.654Z,159.63
2018-12-04T16:43:41.837Z,144.93
2018-12-04T16:46:12.553Z,157.47
2018-12-04T16:48:41.837Z,137.10
2018-12-04T16:51:11.046Z,131.77
2018-12-04T16:53:40.968Z,123.13
2018-12-04T16:56:10.196Z,130.97
2018-12-04T16:58:39.200Z,139.23
2018-12-04T17:01:08.623Z,150.77
2018-12-04T17:03:37.872Z,157.33
2018-12-04T17:06:06.985Z,181.13
2018-12-04T17:08:36.343Z,176.70
2018-12-04T17:11:05.253Z,192.17
2018-12-04T17:13:34.137Z,203.97
2018-12-04T17:16:03.588Z,194.33
2018-12-04T17:18:37.715Z,158.43
2018-12-04T17:21:03.912Z,130.20
2018-12-04T17:23:33.117Z,133.10
2018-12-04T17:26:02.194Z,124.67
2018-12-04T17:28:31.551Z,133.10
2018-12-04T17:31:00.719Z,144.03
2018-12-04T17:33:29.893Z,126.10
2018-12-04T17:35:59.035Z,122.57
2018-12-04T17:38:28.509Z,126.53
2018-12-04T17:40:57.695Z,124.80
2018-12-04T17:43:27.375Z,131.43
2018-12-04T17:45:56.593Z,135.00
2018-12-04T17:48:25.805Z,126.07
2018-12-04T17:50:54.773Z,125.30
2018-12-04T17:53:23.893Z,133.77
2018-12-04T17:55:53.101Z,148.47
2018-12-04T17:58:22.398Z,143.63
2018-12-04T18:00:51.593Z,173.23
2018-12-04T18:03:22.883Z,191.03
2018-12-04T18:05:52.986Z,214.60
2018-12-04T18:08:22.068Z,195.67
2018-12-04T18:10:51.282Z,254.30
2018-12-04T18:13:20.529Z,273.73
2018-12-04T18:15:49.648Z,274.37
2018-12-04T18:18:19.877Z,299.57
2018-12-04T18:20:48.864Z,279.90
2018-12-04T18:23:18.163Z,195.17
2018-12-04T18:25:47.668Z,186.57
2018-12-04T18:28:16.856Z,189.60
2018-12-04T18:30:46.146Z,184.10
2018-12-04T18:33:15.505Z,178.97
2018-12-04T18:35:44.744Z,175.73
2018-12-04T18:38:13.961Z,151.33
2018-12-04T18:40:43.186Z,141.87
2018-12-04T18:43:12.261Z,149.80
2018-12-04T18:45:41.196Z,133.83
2018-12-04T18:48:10.548Z,135.13
2018-12-04T18:50:39.918Z,129.67
2018-12-04T18:53:09.148Z,147.53
2018-12-04T18:55:38.388Z,142.80
2018-12-04T18:58:07.622Z,121.40
2018-12-04T19:00:37.453Z,117.57
2018-12-04T19:03:06.841Z,106.17
2018-12-04T19:05:35.960Z,111.57
2018-12-04T19:08:04.865Z,118.87
2018-12-04T19:10:33.899Z,129.47
2018-12-04T19:13:02.774Z,129.13
2018-12-04T19:15:31.929Z,162.87
2018-12-04T19:18:01.195Z,192.83
2018-12-04T19:20:30.317Z,210.10
2018-12-04T19:22:59.272Z,232.80
2018-12-04T19:25:28.515Z,227.23
2018-12-04T19:27:58.714Z,231.13
2018-12-04T19:30:28.240Z,234.60
2018-12-04T19:32:57.135Z,246.80
2018-12-04T19:35:26.021Z,248.77
2018-12-04T19:37:55.835Z,218.20
2018-12-04T19:40:25.523Z,244.50
2018-12-04T19:42:54.722Z,246.60
2018-12-04T19:45:24.241Z,256.60
2018-12-04T19:47:53.529Z,237.27
2018-12-04T19:50:22.741Z,228.57
2018-12-04T19:52:51.904Z,247.50
2018-12-04T19:55:21.032Z,237.10
2018-12-04T19:57:50.212Z,236.17
2018-12-04T20:00:19.468Z,234.50
2018-12-04T20:02:48.712Z,218.43
2018-12-04T20:05:17.920Z,221.57
2018-12-04T20:07:47.437Z,223.07
2018-12-04T20:10:16.606Z,211.60
2018-12-04T20:12:45.805Z,228.90
2018-12-04T20:15:15.154Z,252.47
2018-12-04T20:17:44.220Z,232.47
2018-12-04T20:20:13.397Z,205.13
2018-12-04T20:22:42.449Z,137.13
2018-12-04T20:25:11.714Z,102.97
2018-12-04T20:27:40.808Z,84.57
2018-12-04T20:30:09.924Z,80.50
2018-12-04T20:32:38.997Z,86.67
2018-12-04T20:35:08.584Z,106.67
2018-12-04T20:37:37.851Z,91.77
2018-12-04T20:40:07.004Z,74.67
2018-12-04T20:42:35.998Z,61.03
2018-12-04T20:45:06.550Z,54.00
2018-12-04T20:47:35.421Z,57.93
2018-12-04T20:50:05.116Z,62.53
2018-12-04T20:52:34.428Z,59.50
2018-12-04T20:55:08.724Z,59.23
2018-12-04T20:57:35.032Z,97.40
2018-12-04T21:00:05.534Z,83.37
2018-12-04T21:02:35.546Z,76.77
2018-12-04T21:05:05.226Z,85.27
2018-12-04T21:07:34.393Z,100.13
2018-12-04T21:10:04.025Z,74.23
2018-12-04T21:12:32.924Z,56.50
2018-12-04T21:15:02.014Z,55.20
2018-12-04T21:17:31.353Z,63.00
2018-12-04T21:20:00.612Z,63.77
2018-12-04T21:22:29.701Z,92.10
2018-12-04T21:24:59.040Z,104.70
2018-12-04T21:27:33.197Z,97.33
2018-12-04T21:30:07.537Z,88.43
2018-12-04T21:32:41.934Z,93.70
2018-12-04T21:35:16.233Z,75.90
2018-12-04T21:37:50.409Z,82.77
2018-12-04T21:40:24.537Z,62.87
2018-12-04T21:42:58.514Z,57.23
2018-12-04T21:45:32.952Z,53.53
2018-12-04T21:48:07.385Z,53.53
2018-12-04T21:50:36.571Z,60.87
2018-12-04T21:53:05.514Z,80.77
2018-12-04T21:55:34.401Z,83.30
2018-12-04T21:58:03.942Z,67.73
2018-12-04T22:00:33.058Z,58.07
2018-12-04T22:03:02.643Z,54.20
2018-12-04T22:05:31.876Z,60.47
2018-12-04T22:08:00.761Z,59.50
2018-12-04T22:10:29.708Z,56.57
2018-12-04T22:12:58.797Z,51.93
2018-12-04T22:15:27.688Z,51.70
2018-12-04T22:17:56.552Z,61.50
2018-12-04T22:20:25.570Z,59.73
2018-12-04T22:22:54.435Z,60.30
2018-12-04T22:25:23.308Z,55.33
2018-12-04T22:27:52.367Z,68.30
2018-12-04T22:30:21.252Z,69.87
2018-12-04T22:32:50.337Z,69.97
2018-12-04T22:35:20.065Z,71.57
2018-12-04T22:37:49.245Z,60.87
2018-12-04T22:40:18.442Z,57.30
2018-12-04T22:42:47.705Z,52.67
2018-12-04T22:45:22.396Z,47.53
2018-12-04T22:47:51.831Z,42.50
2018-12-04T22:50:21.373Z,37.27
2018-12-04T22:52:50.581Z,35.10
2018-12-04T22:55:20.141Z,34.10
2018-12-04T22:57:49.187Z,35.20
2018-12-04T23:00:28.092Z,34.17
2018-12-04T23:02:57.838Z,37.13
2018-12-04T23:05:27.000Z,42.03
2018-12-04T23:07:56.537Z,44.30
2018-12-04T23:10:25.808Z,39.87
2018-12-04T23:12:56.007Z,36.53
2018-12-04T23:15:24.958Z,36.70
2018-12-04T23:17:53.857Z,37.13
2018-12-04T23:20:22.737Z,50.87
2018-12-04T23:22:51.764Z,50.07
2018-12-04T23:25:20.649Z,45.37
2018-12-04T23:27:49.619Z,42.73
2018-12-04T23:30:18.633Z,39.80
2018-12-04T23:32:47.984Z,38.63
2018-12-04T23:35:17.284Z,37.80
2018-12-04T23:37:46.285Z,38.20
2018-12-04T23:40:15.164Z,35.33
2018-12-04T23:42:44.025Z,37.97
2018-12-04T23:45:13.365Z,36.73
2018-12-04T23:47:42.269Z,38.87
2018-12-04T23:50:11.156Z,36.67
2018-12-04T23:52:40.048Z,36.43
2018-12-04T23:55:08.928Z,40.00
2018-12-04T23:57:37.796Z,36.33
